sensor_id;sensor_type;location;lat;lon;timestamp;temperature;humidity
35894;DHT22;21994;48.204;16.516;2022-10-26T00:00:03;7.10;99.90
35894;DHT22;21994;48.204;16.516;2022-10-26T00:02:29;7.10;99.90
35894;DHT22;21994;48.204;16.516;2022-10-26T00:04:55;7.10;99.90
35894;DHT22;21994;48.204;16.516;2022-10-26T00:07:21;7.10;99.90
35894;DHT22;21994;48.204;16.516;2022-10-26T00:09:47;7.10;99.90
35894;DHT22;21994;48.204;16.516;2022-10-26T00:12:13;7.10;99.90
35894;DHT22;21994;48.204;16.516;2022-10-26T00:14:38;7.00;99.90
35894;DHT22;21994;48.204;16.516;2022-10-26T00:17:04;7.00;99.90
35894;DHT22;21994;48.204;16.516;2022-10-26T00:19:32;7.00;99.90
35894;DHT22;21994;48.204;16.516;2022-10-26T00:21:59;7.00;99.90
35894;DHT22;21994;48.204;16.516;2022-10-26T00:24:25;7.00;99.90
35894;DHT22;21994;48.204;16.516;2022-10-26T00:26:51;7.00;99.90
35894;DHT22;21994;48.204;16.516;2022-10-26T00:29:17;7.00;99.90
35894;DHT22;21994;48.204;16.516;2022-10-26T00:31:43;6.90;99.90
35894;DHT22;21994;48.204;16.516;2022-10-26T00:34:10;6.90;99.90
35894;DHT22;21994;48.204;16.516;2022-10-26T00:36:36;6.90;99.90
35894;DHT22;21994;48.204;16.516;2022-10-26T00:39:03;7.00;99.90
35894;DHT22;21994;48.204;16.516;2022-10-26T00:41:31;6.90;99.90
35894;DHT22;21994;48.204;16.516;2022-10-26T00:43:58;6.90;99.90
35894;DHT22;21994;48.204;16.516;2022-10-26T00:46:42;6.80;99.90
35894;DHT22;21994;48.204;16.516;2022-10-26T00:49:19;6.80;99.90
35894;DHT22;21994;48.204;16.516;2022-10-26T00:51:49;6.70;99.90
35894;DHT22;21994;48.204;16.516;2022-10-26T00:54:18;6.60;99.90
35894;DHT22;21994;48.204;16.516;2022-10-26T00:56:46;6.70;99.90
35894;DHT22;21994;48.204;16.516;2022-10-26T00:59:15;6.70;99.90
35894;DHT22;21994;48.204;16.516;2022-10-26T01:01:46;6.70;99.90
35894;DHT22;21994;48.204;16.516;2022-10-26T01:04:13;6.60;99.90
35894;DHT22;21994;48.204;16.516;2022-10-26T01:06:41;6.60;99.90
35894;DHT22;21994;48.204;16.516;2022-10-26T01:09:08;6.60;99.90
35894;DHT22;21994;48.204;16.516;2022-10-26T01:11:34;6.50;99.90
35894;DHT22;21994;48.204;16.516;2022-10-26T01:14:02;6.60;99.90
35894;DHT22;21994;48.204;16.516;2022-10-26T01:17:01;6.60;99.90
35894;DHT22;21994;48.204;16.516;2022-10-26T01:22:47;6.60;99.90
35894;DHT22;21994;48.204;16.516;2022-10-26T01:25:41;6.60;99.90
35894;DHT22;21994;48.204;16.516;2022-10-26T01:28:41;6.50;99.90
35894;DHT22;21994;48.204;16.516;2022-10-26T01:31:33;6.50;99.90
35894;DHT22;21994;48.204;16.516;2022-10-26T01:34:11;6.40;99.90
35894;DHT22;21994;48.204;16.516;2022-10-26T01:36:47;6.40;99.90
35894;DHT22;21994;48.204;16.516;2022-10-26T01:39:26;6.50;99.90
35894;DHT22;21994;48.204;16.516;2022-10-26T01:42:00;6.40;99.90
35894;DHT22;21994;48.204;16.516;2022-10-26T01:44:38;6.40;99.90
35894;DHT22;21994;48.204;16.516;2022-10-26T01:47:10;6.40;99.90
35894;DHT22;21994;48.204;16.516;2022-10-26T01:49:47;6.40;99.90
35894;DHT22;21994;48.204;16.516;2022-10-26T01:52:17;6.30;99.90
35894;DHT22;21994;48.204;16.516;2022-10-26T01:54:44;6.40;99.90
35894;DHT22;21994;48.204;16.516;2022-10-26T01:57:12;6.40;99.90
35894;DHT22;21994;48.204;16.516;2022-10-26T02:11:40;6.30;99.90
35894;DHT22;21994;48.204;16.516;2022-10-26T02:14:12;6.30;99.90
35894;DHT22;21994;48.204;16.516;2022-10-26T02:16:56;6.30;99.90
35894;DHT22;21994;48.204;16.516;2022-10-26T02:22:04;6.20;99.90
35894;DHT22;21994;48.204;16.516;2022-10-26T02:24:43;6.20;99.90
35894;DHT22;21994;48.204;16.516;2022-10-26T02:27:13;6.30;99.90
35894;DHT22;21994;48.204;16.516;2022-10-26T02:29:50;6.30;99.90
35894;DHT22;21994;48.204;16.516;2022-10-26T02:32:19;6.30;99.90
35894;DHT22;21994;48.204;16.516;2022-10-26T02:34:49;6.40;99.90
35894;DHT22;21994;48.204;16.516;2022-10-26T02:37:18;6.30;99.90
35894;DHT22;21994;48.204;16.516;2022-10-26T02:39:47;6.30;99.90
35894;DHT22;21994;48.204;16.516;2022-10-26T02:42:14;6.30;99.90
35894;DHT22;21994;48.204;16.516;2022-10-26T02:44:48;6.40;99.90
35894;DHT22;21994;48.204;16.516;2022-10-26T02:47:17;6.30;99.90
35894;DHT22;21994;48.204;16.516;2022-10-26T02:49:44;6.20;99.90
35894;DHT22;21994;48.204;16.516;2022-10-26T02:55:39;6.10;99.90
35894;DHT22;21994;48.204;16.516;2022-10-26T02:58:15;6.20;99.90
35894;DHT22;21994;48.204;16.516;2022-10-26T03:00:45;6.00;99.90
35894;DHT22;21994;48.204;16.516;2022-10-26T03:03:11;6.00;99.90
35894;DHT22;21994;48.204;16.516;2022-10-26T03:05:41;6.00;99.90
35894;DHT22;21994;48.204;16.516;2022-10-26T03:08:07;6.00;99.90
35894;DHT22;21994;48.204;16.516;2022-10-26T03:10:39;5.90;99.90
35894;DHT22;21994;48.204;16.516;2022-10-26T03:13:07;5.80;99.90
35894;DHT22;21994;48.204;16.516;2022-10-26T03:15:33;5.80;99.90
35894;DHT22;21994;48.204;16.516;2022-10-26T03:17:59;5.90;99.90
35894;DHT22;21994;48.204;16.516;2022-10-26T03:20:25;5.90;99.90
35894;DHT22;21994;48.204;16.516;2022-10-26T03:22:51;5.80;99.90
35894;DHT22;21994;48.204;16.516;2022-10-26T03:25:17;5.80;99.90
35894;DHT22;21994;48.204;16.516;2022-10-26T03:27:43;5.80;99.90
35894;DHT22;21994;48.204;16.516;2022-10-26T03:30:09;5.80;99.90
35894;DHT22;21994;48.204;16.516;2022-10-26T03:32:35;5.80;99.90
35894;DHT22;21994;48.204;16.516;2022-10-26T03:35:02;5.80;99.90
35894;DHT22;21994;48.204;16.516;2022-10-26T03:37:28;5.80;99.90
35894;DHT22;21994;48.204;16.516;2022-10-26T03:39:53;5.90;99.90
35894;DHT22;21994;48.204;16.516;2022-10-26T03:42:19;5.90;99.90
35894;DHT22;21994;48.204;16.516;2022-10-26T03:44:45;5.80;99.90
35894;DHT22;21994;48.204;16.516;2022-10-26T03:47:12;5.80;99.90
35894;DHT22;21994;48.204;16.516;2022-10-26T03:49:38;5.80;99.90
35894;DHT22;21994;48.204;16.516;2022-10-26T03:52:04;5.80;99.90
35894;DHT22;21994;48.204;16.516;2022-10-26T03:54:30;5.90;99.90
35894;DHT22;21994;48.204;16.516;2022-10-26T03:56:55;5.80;99.90
35894;DHT22;21994;48.204;16.516;2022-10-26T03:59:21;5.80;99.90
35894;DHT22;21994;48.204;16.516;2022-10-26T04:01:47;5.80;99.90
35894;DHT22;21994;48.204;16.516;2022-10-26T04:04:13;5.80;99.90
35894;DHT22;21994;48.204;16.516;2022-10-26T04:06:39;5.80;99.90
35894;DHT22;21994;48.204;16.516;2022-10-26T04:09:04;5.70;99.90
35894;DHT22;21994;48.204;16.516;2022-10-26T04:11:32;5.80;99.90
35894;DHT22;21994;48.204;16.516;2022-10-26T04:13:58;5.80;99.90
35894;DHT22;21994;48.204;16.516;2022-10-26T04:16:25;5.90;99.90
35894;DHT22;21994;48.204;16.516;2022-10-26T04:18:51;5.80;99.90
35894;DHT22;21994;48.204;16.516;2022-10-26T04:21:17;5.80;99.90
35894;DHT22;21994;48.204;16.516;2022-10-26T04:23:42;5.90;99.90
35894;DHT22;21994;48.204;16.516;2022-10-26T04:26:08;5.90;99.90
35894;DHT22;21994;48.204;16.516;2022-10-26T04:28:34;6.00;99.90
35894;DHT22;21994;48.204;16.516;2022-10-26T04:31:00;6.00;99.90
35894;DHT22;21994;48.204;16.516;2022-10-26T04:33:26;6.10;99.90
35894;DHT22;21994;48.204;16.516;2022-10-26T04:35:51;6.20;99.90
35894;DHT22;21994;48.204;16.516;2022-10-26T04:38:17;6.40;99.90
35894;DHT22;21994;48.204;16.516;2022-10-26T04:40:43;6.50;99.90
35894;DHT22;21994;48.204;16.516;2022-10-26T04:43:09;6.50;99.90
35894;DHT22;21994;48.204;16.516;2022-10-26T04:45:35;6.80;99.90
35894;DHT22;21994;48.204;16.516;2022-10-26T04:48:06;6.90;99.90
35894;DHT22;21994;48.204;16.516;2022-10-26T04:50:34;7.00;99.90
35894;DHT22;21994;48.204;16.516;2022-10-26T04:53:00;7.00;99.90
35894;DHT22;21994;48.204;16.516;2022-10-26T04:55:26;7.10;99.90
35894;DHT22;21994;48.204;16.516;2022-10-26T04:57:52;7.00;99.90
35894;DHT22;21994;48.204;16.516;2022-10-26T05:00:18;7.00;99.90
35894;DHT22;21994;48.204;16.516;2022-10-26T05:02:44;7.00;99.90
35894;DHT22;21994;48.204;16.516;2022-10-26T05:05:10;7.00;99.90
35894;DHT22;21994;48.204;16.516;2022-10-26T05:07:36;6.80;99.90
35894;DHT22;21994;48.204;16.516;2022-10-26T05:10:02;6.90;99.90
35894;DHT22;21994;48.204;16.516;2022-10-26T05:12:29;7.00;99.90
35894;DHT22;21994;48.204;16.516;2022-10-26T05:14:54;6.90;99.90
35894;DHT22;21994;48.204;16.516;2022-10-26T05:17:24;6.80;99.90
35894;DHT22;21994;48.204;16.516;2022-10-26T05:19:51;6.70;99.90
35894;DHT22;21994;48.204;16.516;2022-10-26T05:22:24;6.70;99.90
35894;DHT22;21994;48.204;16.516;2022-10-26T05:24:50;6.70;99.90
35894;DHT22;21994;48.204;16.516;2022-10-26T05:27:16;6.70;99.90
35894;DHT22;21994;48.204;16.516;2022-10-26T05:29:42;6.70;99.90
35894;DHT22;21994;48.204;16.516;2022-10-26T05:32:08;6.70;99.90
35894;DHT22;21994;48.204;16.516;2022-10-26T05:34:33;6.80;99.90
35894;DHT22;21994;48.204;16.516;2022-10-26T05:36:59;6.90;99.90
35894;DHT22;21994;48.204;16.516;2022-10-26T05:39:25;6.90;99.90
35894;DHT22;21994;48.204;16.516;2022-10-26T05:41:51;7.00;99.90
35894;DHT22;21994;48.204;16.516;2022-10-26T05:44:16;7.00;99.90
35894;DHT22;21994;48.204;16.516;2022-10-26T05:46:42;7.10;99.90
35894;DHT22;21994;48.204;16.516;2022-10-26T05:49:11;7.20;99.90
35894;DHT22;21994;48.204;16.516;2022-10-26T05:51:37;7.20;99.90
35894;DHT22;21994;48.204;16.516;2022-10-26T05:54:04;7.20;99.90
35894;DHT22;21994;48.204;16.516;2022-10-26T05:59:03;7.40;99.90
35894;DHT22;21994;48.204;16.516;2022-10-26T06:01:39;7.40;99.90
35894;DHT22;21994;48.204;16.516;2022-10-26T06:04:30;7.60;99.90
35894;DHT22;21994;48.204;16.516;2022-10-26T06:07:02;7.60;99.90
35894;DHT22;21994;48.204;16.516;2022-10-26T06:09:30;7.60;99.90
35894;DHT22;21994;48.204;16.516;2022-10-26T06:11:56;7.70;99.90
35894;DHT22;21994;48.204;16.516;2022-10-26T06:14:22;7.80;99.90
35894;DHT22;21994;48.204;16.516;2022-10-26T06:25:59;8.10;99.90
35894;DHT22;21994;48.204;16.516;2022-10-26T06:31:07;8.30;99.90
35894;DHT22;21994;48.204;16.516;2022-10-26T06:33:33;8.30;99.90
35894;DHT22;21994;48.204;16.516;2022-10-26T06:38:38;8.60;99.90
35894;DHT22;21994;48.204;16.516;2022-10-26T06:41:07;8.60;99.90
35894;DHT22;21994;48.204;16.516;2022-10-26T06:43:35;8.60;99.90
35894;DHT22;21994;48.204;16.516;2022-10-26T06:46:21;8.70;99.90
35894;DHT22;21994;48.204;16.516;2022-10-26T06:51:42;8.80;99.90
35894;DHT22;21994;48.204;16.516;2022-10-26T06:54:28;8.80;99.90
35894;DHT22;21994;48.204;16.516;2022-10-26T06:57:01;8.90;99.90
35894;DHT22;21994;48.204;16.516;2022-10-26T06:59:50;9.00;99.90
35894;DHT22;21994;48.204;16.516;2022-10-26T07:02:18;8.90;99.90
35894;DHT22;21994;48.204;16.516;2022-10-26T07:04:44;8.90;99.90
35894;DHT22;21994;48.204;16.516;2022-10-26T07:07:20;8.90;99.90
35894;DHT22;21994;48.204;16.516;2022-10-26T07:09:47;8.90;99.90
35894;DHT22;21994;48.204;16.516;2022-10-26T07:12:14;9.00;99.90
35894;DHT22;21994;48.204;16.516;2022-10-26T07:14:39;9.00;99.90
35894;DHT22;21994;48.204;16.516;2022-10-26T07:17:05;9.00;99.90
35894;DHT22;21994;48.204;16.516;2022-10-26T07:19:31;9.00;99.90
35894;DHT22;21994;48.204;16.516;2022-10-26T07:21:57;9.10;99.90
35894;DHT22;21994;48.204;16.516;2022-10-26T07:24:29;9.20;99.90
35894;DHT22;21994;48.204;16.516;2022-10-26T07:26:57;9.30;99.90
35894;DHT22;21994;48.204;16.516;2022-10-26T07:29:23;9.30;99.90
35894;DHT22;21994;48.204;16.516;2022-10-26T07:31:51;9.50;99.90
35894;DHT22;21994;48.204;16.516;2022-10-26T07:34:17;9.70;99.90
35894;DHT22;21994;48.204;16.516;2022-10-26T07:36:43;9.90;99.90
35894;DHT22;21994;48.204;16.516;2022-10-26T07:39:09;9.80;99.90
35894;DHT22;21994;48.204;16.516;2022-10-26T07:41:35;9.80;99.90
35894;DHT22;21994;48.204;16.516;2022-10-26T07:44:01;10.00;99.90
35894;DHT22;21994;48.204;16.516;2022-10-26T07:46:27;10.00;99.90
35894;DHT22;21994;48.204;16.516;2022-10-26T07:48:53;10.10;99.90
35894;DHT22;21994;48.204;16.516;2022-10-26T07:51:19;10.00;99.90
35894;DHT22;21994;48.204;16.516;2022-10-26T07:53:45;10.10;99.90
35894;DHT22;21994;48.204;16.516;2022-10-26T07:56:12;10.30;99.90
35894;DHT22;21994;48.204;16.516;2022-10-26T07:58:37;10.30;99.90
35894;DHT22;21994;48.204;16.516;2022-10-26T08:01:05;10.40;99.90
35894;DHT22;21994;48.204;16.516;2022-10-26T08:03:36;10.50;99.90
35894;DHT22;21994;48.204;16.516;2022-10-26T08:06:02;10.60;99.90
35894;DHT22;21994;48.204;16.516;2022-10-26T08:08:30;10.80;99.90
35894;DHT22;21994;48.204;16.516;2022-10-26T08:10:57;10.90;99.90
35894;DHT22;21994;48.204;16.516;2022-10-26T08:13:23;11.00;99.90
35894;DHT22;21994;48.204;16.516;2022-10-26T08:15:49;11.10;99.90
35894;DHT22;21994;48.204;16.516;2022-10-26T08:18:15;11.20;99.90
35894;DHT22;21994;48.204;16.516;2022-10-26T08:20:41;11.10;99.90
35894;DHT22;21994;48.204;16.516;2022-10-26T08:23:07;11.30;99.90
35894;DHT22;21994;48.204;16.516;2022-10-26T08:25:33;11.30;99.90
35894;DHT22;21994;48.204;16.516;2022-10-26T08:28:03;11.20;99.90
35894;DHT22;21994;48.204;16.516;2022-10-26T08:30:30;11.20;99.90
35894;DHT22;21994;48.204;16.516;2022-10-26T08:33:14;11.20;99.90
35894;DHT22;21994;48.204;16.516;2022-10-26T08:35:40;11.20;99.90
35894;DHT22;21994;48.204;16.516;2022-10-26T08:38:06;11.30;99.90
35894;DHT22;21994;48.204;16.516;2022-10-26T08:40:38;11.30;99.90
35894;DHT22;21994;48.204;16.516;2022-10-26T08:48:49;11.30;99.90
35894;DHT22;21994;48.204;16.516;2022-10-26T08:51:26;11.50;99.90
35894;DHT22;21994;48.204;16.516;2022-10-26T08:54:11;11.50;99.90
35894;DHT22;21994;48.204;16.516;2022-10-26T08:56:53;11.50;99.90
35894;DHT22;21994;48.204;16.516;2022-10-26T09:02:11;11.80;99.90
35894;DHT22;21994;48.204;16.516;2022-10-26T09:04:38;11.80;99.90
35894;DHT22;21994;48.204;16.516;2022-10-26T09:24:25;12.00;99.90
35894;DHT22;21994;48.204;16.516;2022-10-26T09:26:56;12.20;99.90
35894;DHT22;21994;48.204;16.516;2022-10-26T09:29:30;12.10;99.90
35894;DHT22;21994;48.204;16.516;2022-10-26T09:32:00;12.20;99.90
35894;DHT22;21994;48.204;16.516;2022-10-26T09:34:41;12.20;99.90
35894;DHT22;21994;48.204;16.516;2022-10-26T09:37:17;12.10;99.90
35894;DHT22;21994;48.204;16.516;2022-10-26T09:42:45;12.00;99.90
35894;DHT22;21994;48.204;16.516;2022-10-26T09:45:27;12.00;99.90
35894;DHT22;21994;48.204;16.516;2022-10-26T09:48:11;12.10;99.90
35894;DHT22;21994;48.204;16.516;2022-10-26T09:50:44;12.10;99.90
35894;DHT22;21994;48.204;16.516;2022-10-26T09:53:12;12.30;99.90
35894;DHT22;21994;48.204;16.516;2022-10-26T09:55:47;12.20;99.90
35894;DHT22;21994;48.204;16.516;2022-10-26T09:58:19;12.10;99.90
35894;DHT22;21994;48.204;16.516;2022-10-26T10:00:49;12.00;99.90
35894;DHT22;21994;48.204;16.516;2022-10-26T10:03:34;12.10;99.90
35894;DHT22;21994;48.204;16.516;2022-10-26T10:06:16;12.40;99.90
35894;DHT22;21994;48.204;16.516;2022-10-26T10:09:05;12.60;99.90
35894;DHT22;21994;48.204;16.516;2022-10-26T10:11:43;12.50;99.90
35894;DHT22;21994;48.204;16.516;2022-10-26T10:14:23;12.60;99.90
35894;DHT22;21994;48.204;16.516;2022-10-26T10:16:53;12.60;99.90
35894;DHT22;21994;48.204;16.516;2022-10-26T10:19:25;12.70;99.90
35894;DHT22;21994;48.204;16.516;2022-10-26T10:21:55;12.50;99.90
35894;DHT22;21994;48.204;16.516;2022-10-26T10:24:32;12.40;99.90
35894;DHT22;21994;48.204;16.516;2022-10-26T10:27:19;12.50;99.90
35894;DHT22;21994;48.204;16.516;2022-10-26T10:29:47;12.50;99.90
35894;DHT22;21994;48.204;16.516;2022-10-26T10:32:23;12.50;99.90
35894;DHT22;21994;48.204;16.516;2022-10-26T10:34:53;12.40;99.90
35894;DHT22;21994;48.204;16.516;2022-10-26T10:40:02;12.50;99.90
35894;DHT22;21994;48.204;16.516;2022-10-26T10:42:33;12.50;99.90
35894;DHT22;21994;48.204;16.516;2022-10-26T10:45:03;12.60;99.90
35894;DHT22;21994;48.204;16.516;2022-10-26T10:47:32;12.70;99.90
35894;DHT22;21994;48.204;16.516;2022-10-26T10:50:03;12.70;99.90
35894;DHT22;21994;48.204;16.516;2022-10-26T10:52:34;12.70;99.90
35894;DHT22;21994;48.204;16.516;2022-10-26T11:00:43;12.70;99.90
35894;DHT22;21994;48.204;16.516;2022-10-26T11:03:35;12.80;99.90
35894;DHT22;21994;48.204;16.516;2022-10-26T11:06:18;12.70;99.90
35894;DHT22;21994;48.204;16.516;2022-10-26T11:11:54;12.70;99.90
35894;DHT22;21994;48.204;16.516;2022-10-26T11:14:58;12.70;99.90
35894;DHT22;21994;48.204;16.516;2022-10-26T11:17:49;12.60;99.90
35894;DHT22;21994;48.204;16.516;2022-10-26T11:20:23;12.60;99.90
35894;DHT22;21994;48.204;16.516;2022-10-26T11:25:18;12.60;99.90
35894;DHT22;21994;48.204;16.516;2022-10-26T11:27:54;12.60;99.90
35894;DHT22;21994;48.204;16.516;2022-10-26T11:30:56;12.70;99.90
35894;DHT22;21994;48.204;16.516;2022-10-26T11:34:16;12.50;99.90
35894;DHT22;21994;48.204;16.516;2022-10-26T11:36:35;12.60;99.90
35894;DHT22;21994;48.204;16.516;2022-10-26T11:39:13;12.60;99.90
35894;DHT22;21994;48.204;16.516;2022-10-26T11:45:00;12.80;99.90
35894;DHT22;21994;48.204;16.516;2022-10-26T11:47:52;12.90;99.90
35894;DHT22;21994;48.204;16.516;2022-10-26T11:50:26;12.90;99.90
35894;DHT22;21994;48.204;16.516;2022-10-26T11:53:01;12.90;99.90
35894;DHT22;21994;48.204;16.516;2022-10-26T11:55:40;13.10;99.90
35894;DHT22;21994;48.204;16.516;2022-10-26T11:58:10;13.10;99.90
35894;DHT22;21994;48.204;16.516;2022-10-26T12:00:50;13.30;99.90
35894;DHT22;21994;48.204;16.516;2022-10-26T12:03:24;13.30;99.90
35894;DHT22;21994;48.204;16.516;2022-10-26T12:05:52;13.20;99.90
35894;DHT22;21994;48.204;16.516;2022-10-26T12:08:40;13.40;99.90
35894;DHT22;21994;48.204;16.516;2022-10-26T12:14:45;13.40;99.90
35894;DHT22;21994;48.204;16.516;2022-10-26T12:17:40;13.60;99.90
35894;DHT22;21994;48.204;16.516;2022-10-26T12:23:28;13.70;99.90
35894;DHT22;21994;48.204;16.516;2022-10-26T12:26:56;13.70;99.90
35894;DHT22;21994;48.204;16.516;2022-10-26T12:34:03;13.90;99.90
35894;DHT22;21994;48.204;16.516;2022-10-26T12:39:32;14.10;99.90
35894;DHT22;21994;48.204;16.516;2022-10-26T12:44:35;14.10;99.90
35894;DHT22;21994;48.204;16.516;2022-10-26T12:47:01;14.20;99.90
35894;DHT22;21994;48.204;16.516;2022-10-26T13:09:16;14.20;99.90
35894;DHT22;21994;48.204;16.516;2022-10-26T13:11:55;14.20;99.90
35894;DHT22;21994;48.204;16.516;2022-10-26T13:14:33;14.10;99.90
35894;DHT22;21994;48.204;16.516;2022-10-26T13:17:06;14.10;99.90
35894;DHT22;21994;48.204;16.516;2022-10-26T13:20:00;14.10;99.90
35894;DHT22;21994;48.204;16.516;2022-10-26T13:22:28;14.10;99.90
35894;DHT22;21994;48.204;16.516;2022-10-26T13:25:00;14.10;99.90
35894;DHT22;21994;48.204;16.516;2022-10-26T13:30:42;14.00;99.90
35894;DHT22;21994;48.204;16.516;2022-10-26T13:33:18;14.00;99.90
35894;DHT22;21994;48.204;16.516;2022-10-26T13:35:45;13.80;99.90
35894;DHT22;21994;48.204;16.516;2022-10-26T13:38:13;13.80;99.90
35894;DHT22;21994;48.204;16.516;2022-10-26T13:40:44;14.00;99.90
35894;DHT22;21994;48.204;16.516;2022-10-26T13:43:18;14.00;99.90
35894;DHT22;21994;48.204;16.516;2022-10-26T13:45:59;14.00;99.90
35894;DHT22;21994;48.204;16.516;2022-10-26T13:48:40;14.00;99.90
35894;DHT22;21994;48.204;16.516;2022-10-26T13:51:19;13.90;99.90
35894;DHT22;21994;48.204;16.516;2022-10-26T13:53:56;14.00;99.90
35894;DHT22;21994;48.204;16.516;2022-10-26T13:57:34;13.80;99.90
35894;DHT22;21994;48.204;16.516;2022-10-26T13:59:53;13.90;99.90
35894;DHT22;21994;48.204;16.516;2022-10-26T14:02:24;13.90;99.90
35894;DHT22;21994;48.204;16.516;2022-10-26T14:05:04;13.90;99.90
35894;DHT22;21994;48.204;16.516;2022-10-26T14:10:24;13.80;99.90
35894;DHT22;21994;48.204;16.516;2022-10-26T14:12:52;13.70;99.90
35894;DHT22;21994;48.204;16.516;2022-10-26T14:15:23;13.70;99.90
35894;DHT22;21994;48.204;16.516;2022-10-26T14:17:53;13.50;99.90
35894;DHT22;21994;48.204;16.516;2022-10-26T14:20:22;13.50;99.90
35894;DHT22;21994;48.204;16.516;2022-10-26T14:22:49;13.50;99.90
35894;DHT22;21994;48.204;16.516;2022-10-26T14:27:50;13.50;99.90
35894;DHT22;21994;48.204;16.516;2022-10-26T14:32:48;13.30;99.90
35894;DHT22;21994;48.204;16.516;2022-10-26T14:35:15;13.40;99.90
35894;DHT22;21994;48.204;16.516;2022-10-26T14:37:55;13.30;99.90
35894;DHT22;21994;48.204;16.516;2022-10-26T14:40:24;13.40;99.90
35894;DHT22;21994;48.204;16.516;2022-10-26T14:42:54;13.40;99.90
35894;DHT22;21994;48.204;16.516;2022-10-26T14:45:30;13.30;99.90
35894;DHT22;21994;48.204;16.516;2022-10-26T14:47:59;13.30;99.90
35894;DHT22;21994;48.204;16.516;2022-10-26T14:50:26;13.20;99.90
35894;DHT22;21994;48.204;16.516;2022-10-26T14:53:03;13.10;99.90
35894;DHT22;21994;48.204;16.516;2022-10-26T14:55:49;13.20;99.90
35894;DHT22;21994;48.204;16.516;2022-10-26T14:58:23;13.20;99.90
35894;DHT22;21994;48.204;16.516;2022-10-26T15:03:57;13.20;99.90
35894;DHT22;21994;48.204;16.516;2022-10-26T15:08:59;13.10;99.90
35894;DHT22;21994;48.204;16.516;2022-10-26T15:11:27;13.00;99.90
35894;DHT22;21994;48.204;16.516;2022-10-26T15:13:54;13.00;99.90
35894;DHT22;21994;48.204;16.516;2022-10-26T15:16:23;13.10;99.90
35894;DHT22;21994;48.204;16.516;2022-10-26T15:19:08;12.90;99.90
35894;DHT22;21994;48.204;16.516;2022-10-26T15:21:37;13.10;99.90
35894;DHT22;21994;48.204;16.516;2022-10-26T15:26:46;12.90;99.90
35894;DHT22;21994;48.204;16.516;2022-10-26T15:32:29;12.80;99.90
35894;DHT22;21994;48.204;16.516;2022-10-26T15:35:15;12.90;99.90
35894;DHT22;21994;48.204;16.516;2022-10-26T15:37:48;12.90;99.90
35894;DHT22;21994;48.204;16.516;2022-10-26T15:40:15;12.90;99.90
35894;DHT22;21994;48.204;16.516;2022-10-26T15:42:42;12.90;99.90
35894;DHT22;21994;48.204;16.516;2022-10-26T15:45:26;12.80;99.90
35894;DHT22;21994;48.204;16.516;2022-10-26T15:47:56;12.90;99.90
35894;DHT22;21994;48.204;16.516;2022-10-26T15:50:26;12.80;99.90
35894;DHT22;21994;48.204;16.516;2022-10-26T15:53:01;12.70;99.90
35894;DHT22;21994;48.204;16.516;2022-10-26T15:55:28;12.70;99.90
35894;DHT22;21994;48.204;16.516;2022-10-26T15:57:54;12.60;99.90
35894;DHT22;21994;48.204;16.516;2022-10-26T16:00:20;12.60;99.90
35894;DHT22;21994;48.204;16.516;2022-10-26T16:02:46;12.70;99.90
35894;DHT22;21994;48.204;16.516;2022-10-26T16:05:13;12.60;99.90
35894;DHT22;21994;48.204;16.516;2022-10-26T16:07:42;12.50;99.90
35894;DHT22;21994;48.204;16.516;2022-10-26T16:10:17;12.50;99.90
35894;DHT22;21994;48.204;16.516;2022-10-26T16:12:46;12.50;99.90
35894;DHT22;21994;48.204;16.516;2022-10-26T16:15:22;12.40;99.90
35894;DHT22;21994;48.204;16.516;2022-10-26T16:17:49;12.40;99.90
35894;DHT22;21994;48.204;16.516;2022-10-26T16:20:18;12.40;99.90
35894;DHT22;21994;48.204;16.516;2022-10-26T16:22:47;12.50;99.90
35894;DHT22;21994;48.204;16.516;2022-10-26T16:25:16;12.50;99.90
35894;DHT22;21994;48.204;16.516;2022-10-26T16:27:43;12.40;99.90
35894;DHT22;21994;48.204;16.516;2022-10-26T16:30:10;12.40;99.90
35894;DHT22;21994;48.204;16.516;2022-10-26T16:32:37;12.40;99.90
35894;DHT22;21994;48.204;16.516;2022-10-26T16:35:03;12.40;99.90
35894;DHT22;21994;48.204;16.516;2022-10-26T16:37:33;12.30;99.90
35894;DHT22;21994;48.204;16.516;2022-10-26T16:39:58;12.20;99.90
35894;DHT22;21994;48.204;16.516;2022-10-26T16:42:24;12.30;99.90
35894;DHT22;21994;48.204;16.516;2022-10-26T16:44:50;12.30;99.90
35894;DHT22;21994;48.204;16.516;2022-10-26T16:47:16;12.20;99.90
35894;DHT22;21994;48.204;16.516;2022-10-26T16:49:42;12.20;99.90
35894;DHT22;21994;48.204;16.516;2022-10-26T16:52:09;12.20;99.90
35894;DHT22;21994;48.204;16.516;2022-10-26T16:54:35;12.20;99.90
35894;DHT22;21994;48.204;16.516;2022-10-26T16:57:01;12.30;99.90
35894;DHT22;21994;48.204;16.516;2022-10-26T16:59:27;12.20;99.90
35894;DHT22;21994;48.204;16.516;2022-10-26T17:01:53;12.30;99.90
35894;DHT22;21994;48.204;16.516;2022-10-26T17:04:19;12.20;99.90
35894;DHT22;21994;48.204;16.516;2022-10-26T17:06:45;12.20;99.90
35894;DHT22;21994;48.204;16.516;2022-10-26T17:09:10;12.20;99.90
35894;DHT22;21994;48.204;16.516;2022-10-26T17:11:36;12.20;99.90
35894;DHT22;21994;48.204;16.516;2022-10-26T17:14:02;12.30;99.90
35894;DHT22;21994;48.204;16.516;2022-10-26T17:16:28;12.30;99.90
35894;DHT22;21994;48.204;16.516;2022-10-26T17:18:54;12.30;99.90
35894;DHT22;21994;48.204;16.516;2022-10-26T17:21:27;12.20;99.90
35894;DHT22;21994;48.204;16.516;2022-10-26T17:23:58;12.20;99.90
35894;DHT22;21994;48.204;16.516;2022-10-26T17:26:25;12.20;99.90
35894;DHT22;21994;48.204;16.516;2022-10-26T17:28:55;12.20;99.90
35894;DHT22;21994;48.204;16.516;2022-10-26T17:31:22;12.20;99.90
35894;DHT22;21994;48.204;16.516;2022-10-26T17:33:49;12.20;99.90
35894;DHT22;21994;48.204;16.516;2022-10-26T17:36:17;12.30;99.90
35894;DHT22;21994;48.204;16.516;2022-10-26T17:38:48;12.30;99.90
35894;DHT22;21994;48.204;16.516;2022-10-26T17:41:17;12.30;99.90
35894;DHT22;21994;48.204;16.516;2022-10-26T17:43:45;12.30;99.90
35894;DHT22;21994;48.204;16.516;2022-10-26T17:46:16;12.30;99.90
35894;DHT22;21994;48.204;16.516;2022-10-26T17:48:43;12.30;99.90
35894;DHT22;21994;48.204;16.516;2022-10-26T17:51:19;12.30;99.90
35894;DHT22;21994;48.204;16.516;2022-10-26T17:53:46;12.50;99.90
35894;DHT22;21994;48.204;16.516;2022-10-26T17:56:22;12.50;99.90
35894;DHT22;21994;48.204;16.516;2022-10-26T17:58:51;12.40;99.90
35894;DHT22;21994;48.204;16.516;2022-10-26T18:01:23;12.30;99.90
35894;DHT22;21994;48.204;16.516;2022-10-26T18:03:50;12.30;99.90
35894;DHT22;21994;48.204;16.516;2022-10-26T18:06:16;12.20;99.90
35894;DHT22;21994;48.204;16.516;2022-10-26T18:08:43;12.30;99.90
35894;DHT22;21994;48.204;16.516;2022-10-26T18:11:16;12.10;99.90